sensor_id;sensor_type;location;lat;lon;timestamp;P1;durP1;ratioP1;P2;durP2;ratioP2
14326;SDS011;7247;53.330;-1.180;2023-03-05T00:02:19;11.70;;;8.60;;
14326;SDS011;7247;53.330;-1.180;2023-03-05T00:04:47;9.70;;;7.80;;
14326;SDS011;7247;53.330;-1.180;2023-03-05T00:07:13;12.67;;;8.43;;
14326;SDS011;7247;53.330;-1.180;2023-03-05T00:09:39;10.63;;;7.93;;
14326;SDS011;7247;53.330;-1.180;2023-03-05T00:12:06;11.20;;;7.43;;
14326;SDS011;7247;53.330;-1.180;2023-03-05T00:14:32;12.90;;;7.27;;
14326;SDS011;7247;53.330;-1.180;2023-03-05T00:16:59;11.00;;;7.50;;
14326;SDS011;7247;53.330;-1.180;2023-03-05T00:19:25;10.27;;;7.53;;
14326;SDS011;7247;53.330;-1.180;2023-03-05T00:21:53;12.93;;;8.50;;
14326;SDS011;7247;53.330;-1.180;2023-03-05T00:24:19;11.00;;;7.83;;
14326;SDS011;7247;53.330;-1.180;2023-03-05T00:26:46;10.73;;;7.93;;
14326;SDS011;7247;53.330;-1.180;2023-03-05T00:29:13;12.00;;;8.23;;
14326;SDS011;7247;53.330;-1.180;2023-03-05T00:31:40;13.00;;;8.37;;
14326;SDS011;7247;53.330;-1.180;2023-03-05T00:34:10;12.43;;;7.30;;
14326;SDS011;7247;53.330;-1.180;2023-03-05T00:36:38;10.73;;;7.77;;
14326;SDS011;7247;53.330;-1.180;2023-03-05T00:39:05;9.17;;;7.50;;
14326;SDS011;7247;53.330;-1.180;2023-03-05T00:41:32;12.43;;;7.43;;
14326;SDS011;7247;53.330;-1.180;2023-03-05T00:43:58;8.13;;;7.00;;
14326;SDS011;7247;53.330;-1.180;2023-03-05T00:46:25;11.43;;;7.80;;
14326;SDS011;7247;53.330;-1.180;2023-03-05T00:48:52;10.63;;;6.87;;
14326;SDS011;7247;53.330;-1.180;2023-03-05T00:51:18;10.20;;;7.33;;
14326;SDS011;7247;53.330;-1.180;2023-03-05T00:53:44;9.77;;;7.17;;
14326;SDS011;7247;53.330;-1.180;2023-03-05T00:56:12;11.23;;;6.77;;
14326;SDS011;7247;53.330;-1.180;2023-03-05T00:58:39;11.40;;;7.63;;
14326;SDS011;7247;53.330;-1.180;2023-03-05T01:01:05;10.50;;;7.07;;
14326;SDS011;7247;53.330;-1.180;2023-03-05T01:03:32;10.33;;;7.73;;
14326;SDS011;7247;53.330;-1.180;2023-03-05T01:05:59;12.53;;;7.73;;
14326;SDS011;7247;53.330;-1.180;2023-03-05T01:08:25;12.23;;;7.50;;
14326;SDS011;7247;53.330;-1.180;2023-03-05T01:10:52;13.10;;;7.83;;
14326;SDS011;7247;53.330;-1.180;2023-03-05T01:13:20;12.73;;;7.37;;
14326;SDS011;7247;53.330;-1.180;2023-03-05T01:15:46;11.60;;;7.60;;
14326;SDS011;7247;53.330;-1.180;2023-03-05T01:18:15;11.07;;;7.40;;
14326;SDS011;7247;53.330;-1.180;2023-03-05T01:20:41;13.27;;;8.03;;
14326;SDS011;7247;53.330;-1.180;2023-03-05T01:23:08;12.43;;;8.17;;
14326;SDS011;7247;53.330;-1.180;2023-03-05T01:25:35;11.20;;;7.60;;
14326;SDS011;7247;53.330;-1.180;2023-03-05T01:28:01;14.47;;;7.37;;
14326;SDS011;7247;53.330;-1.180;2023-03-05T01:30:29;12.63;;;7.67;;
14326;SDS011;7247;53.330;-1.180;2023-03-05T01:32:55;11.80;;;7.67;;
14326;SDS011;7247;53.330;-1.180;2023-03-05T01:35:22;11.77;;;7.37;;
14326;SDS011;7247;53.330;-1.180;2023-03-05T01:37:49;12.00;;;7.10;;
14326;SDS011;7247;53.330;-1.180;2023-03-05T01:40:17;8.97;;;6.70;;
14326;SDS011;7247;53.330;-1.180;2023-03-05T01:42:44;10.80;;;6.97;;
14326;SDS011;7247;53.330;-1.180;2023-03-05T01:45:12;11.27;;;7.40;;
14326;SDS011;7247;53.330;-1.180;2023-03-05T01:47:41;12.50;;;7.17;;
14326;SDS011;7247;53.330;-1.180;2023-03-05T01:50:09;10.13;;;6.80;;
14326;SDS011;7247;53.330;-1.180;2023-03-05T01:52:37;9.60;;;6.43;;
14326;SDS011;7247;53.330;-1.180;2023-03-05T01:55:05;12.17;;;6.80;;
14326;SDS011;7247;53.330;-1.180;2023-03-05T01:57:33;9.80;;;6.50;;
14326;SDS011;7247;53.330;-1.180;2023-03-05T02:00:03;8.17;;;6.27;;
14326;SDS011;7247;53.330;-1.180;2023-03-05T02:02:30;9.23;;;6.20;;
14326;SDS011;7247;53.330;-1.180;2023-03-05T02:04:59;11.40;;;6.70;;
14326;SDS011;7247;53.330;-1.180;2023-03-05T02:07:27;8.30;;;6.37;;
14326;SDS011;7247;53.330;-1.180;2023-03-05T02:09:54;9.80;;;6.87;;
14326;SDS011;7247;53.330;-1.180;2023-03-05T02:12:21;12.63;;;6.87;;
14326;SDS011;7247;53.330;-1.180;2023-03-05T02:14:48;9.47;;;6.77;;
14326;SDS011;7247;53.330;-1.180;2023-03-05T02:17:22;9.03;;;6.50;;
14326;SDS011;7247;53.330;-1.180;2023-03-05T02:19:49;11.03;;;7.03;;
14326;SDS011;7247;53.330;-1.180;2023-03-05T02:22:18;9.60;;;7.03;;
14326;SDS011;7247;53.330;-1.180;2023-03-05T02:24:45;12.10;;;7.40;;
14326;SDS011;7247;53.330;-1.180;2023-03-05T02:27:12;10.13;;;7.20;;
14326;SDS011;7247;53.330;-1.180;2023-03-05T02:29:40;11.93;;;7.20;;
14326;SDS011;7247;53.330;-1.180;2023-03-05T02:32:07;12.30;;;7.70;;
14326;SDS011;7247;53.330;-1.180;2023-03-05T02:34:34;8.53;;;7.07;;
14326;SDS011;7247;53.330;-1.180;2023-03-05T02:37:00;10.90;;;7.90;;
14326;SDS011;7247;53.330;-1.180;2023-03-05T02:39:30;10.23;;;7.73;;
14326;SDS011;7247;53.330;-1.180;2023-03-05T02:41:56;12.33;;;8.00;;
14326;SDS011;7247;53.330;-1.180;2023-03-05T02:44:22;11.30;;;7.67;;
14326;SDS011;7247;53.330;-1.180;2023-03-05T02:46:49;12.70;;;8.40;;
14326;SDS011;7247;53.330;-1.180;2023-03-05T02:49:15;12.80;;;8.23;;
14326;SDS011;7247;53.330;-1.180;2023-03-05T02:51:41;14.23;;;8.67;;
14326;SDS011;7247;53.330;-1.180;2023-03-05T02:54:08;15.23;;;8.67;;
14326;SDS011;7247;53.330;-1.180;2023-03-05T02:56:36;12.30;;;7.97;;
14326;SDS011;7247;53.330;-1.180;2023-03-05T02:59:03;12.93;;;8.17;;
14326;SDS011;7247;53.330;-1.180;2023-03-05T03:01:30;10.80;;;8.17;;
14326;SDS011;7247;53.330;-1.180;2023-03-05T03:03:56;11.87;;;8.60;;
14326;SDS011;7247;53.330;-1.180;2023-03-05T03:06:23;11.10;;;8.37;;
14326;SDS011;7247;53.330;-1.180;2023-03-05T03:08:49;13.90;;;8.13;;
14326;SDS011;7247;53.330;-1.180;2023-03-05T03:11:16;14.53;;;8.63;;
14326;SDS011;7247;53.330;-1.180;2023-03-05T03:13:44;13.00;;;8.60;;
14326;SDS011;7247;53.330;-1.180;2023-03-05T03:16:11;13.83;;;8.40;;
14326;SDS011;7247;53.330;-1.180;2023-03-05T03:18:38;11.27;;;8.33;;
14326;SDS011;7247;53.330;-1.180;2023-03-05T03:21:04;10.37;;;8.83;;
14326;SDS011;7247;53.330;-1.180;2023-03-05T03:23:31;12.90;;;8.47;;
14326;SDS011;7247;53.330;-1.180;2023-03-05T03:25:58;10.97;;;8.70;;
14326;SDS011;7247;53.330;-1.180;2023-03-05T03:28:24;13.17;;;8.67;;
14326;SDS011;7247;53.330;-1.180;2023-03-05T03:30:52;12.63;;;8.67;;
14326;SDS011;7247;53.330;-1.180;2023-03-05T03:33:18;13.70;;;8.83;;
14326;SDS011;7247;53.330;-1.180;2023-03-05T03:35:45;13.17;;;9.10;;
14326;SDS011;7247;53.330;-1.180;2023-03-05T03:38:11;12.43;;;8.50;;
14326;SDS011;7247;53.330;-1.180;2023-03-05T03:40:38;14.13;;;8.83;;
14326;SDS011;7247;53.330;-1.180;2023-03-05T03:43:04;11.43;;;8.57;;
14326;SDS011;7247;53.330;-1.180;2023-03-05T03:45:31;12.90;;;8.83;;
14326;SDS011;7247;53.330;-1.180;2023-03-05T03:47:58;12.77;;;8.90;;
14326;SDS011;7247;53.330;-1.180;2023-03-05T03:50:25;11.43;;;8.53;;
14326;SDS011;7247;53.330;-1.180;2023-03-05T03:52:51;11.47;;;8.07;;
14326;SDS011;7247;53.330;-1.180;2023-03-05T03:55:18;10.00;;;8.40;;
14326;SDS011;7247;53.330;-1.180;2023-03-05T03:57:44;11.73;;;8.60;;
14326;SDS011;7247;53.330;-1.180;2023-03-05T04:00:11;10.53;;;8.63;;
14326;SDS011;7247;53.330;-1.180;2023-03-05T04:02:38;10.80;;;8.30;;
14326;SDS011;7247;53.330;-1.180;2023-03-05T04:05:06;12.30;;;8.90;;
14326;SDS011;7247;53.330;-1.180;2023-03-05T04:07:33;11.43;;;9.03;;
14326;SDS011;7247;53.330;-1.180;2023-03-05T04:09:59;14.40;;;8.70;;
14326;SDS011;7247;53.330;-1.180;2023-03-05T04:12:25;10.57;;;8.27;;
14326;SDS011;7247;53.330;-1.180;2023-03-05T04:14:52;13.60;;;9.20;;
14326;SDS011;7247;53.330;-1.180;2023-03-05T04:17:18;15.93;;;8.87;;
14326;SDS011;7247;53.330;-1.180;2023-03-05T04:19:44;14.93;;;9.20;;
14326;SDS011;7247;53.330;-1.180;2023-03-05T04:22:13;11.73;;;8.50;;
14326;SDS011;7247;53.330;-1.180;2023-03-05T04:24:40;15.00;;;8.90;;
14326;SDS011;7247;53.330;-1.180;2023-03-05T04:27:06;12.00;;;9.00;;
14326;SDS011;7247;53.330;-1.180;2023-03-05T04:29:33;14.70;;;9.97;;
14326;SDS011;7247;53.330;-1.180;2023-03-05T04:31:59;15.30;;;10.63;;
14326;SDS011;7247;53.330;-1.180;2023-03-05T04:34:26;14.50;;;9.83;;
14326;SDS011;7247;53.330;-1.180;2023-03-05T04:36:52;13.17;;;9.87;;
14326;SDS011;7247;53.330;-1.180;2023-03-05T04:39:20;15.23;;;9.37;;
14326;SDS011;7247;53.330;-1.180;2023-03-05T04:41:46;13.03;;;9.43;;
14326;SDS011;7247;53.330;-1.180;2023-03-05T04:44:13;13.43;;;8.63;;
14326;SDS011;7247;53.330;-1.180;2023-03-05T04:46:41;12.40;;;8.57;;
14326;SDS011;7247;53.330;-1.180;2023-03-05T04:49:08;10.73;;;7.60;;
14326;SDS011;7247;53.330;-1.180;2023-03-05T04:51:34;9.47;;;8.40;;
14326;SDS011;7247;53.330;-1.180;2023-03-05T04:54:00;12.70;;;8.73;;
14326;SDS011;7247;53.330;-1.180;2023-03-05T04:56:28;14.47;;;10.10;;
14326;SDS011;7247;53.330;-1.180;2023-03-05T04:58:55;20.33;;;11.87;;
14326;SDS011;7247;53.330;-1.180;2023-03-05T05:01:21;16.47;;;10.33;;
14326;SDS011;7247;53.330;-1.180;2023-03-05T05:03:48;18.30;;;10.83;;
14326;SDS011;7247;53.330;-1.180;2023-03-05T05:06:14;15.47;;;10.87;;
14326;SDS011;7247;53.330;-1.180;2023-03-05T05:08:41;16.60;;;10.97;;
14326;SDS011;7247;53.330;-1.180;2023-03-05T05:11:07;16.17;;;10.93;;
14326;SDS011;7247;53.330;-1.180;2023-03-05T05:13:38;16.57;;;10.73;;
14326;SDS011;7247;53.330;-1.180;2023-03-05T05:16:05;14.63;;;9.40;;
14326;SDS011;7247;53.330;-1.180;2023-03-05T05:18:31;14.00;;;9.20;;
14326;SDS011;7247;53.330;-1.180;2023-03-05T05:20:57;14.30;;;8.83;;
14326;SDS011;7247;53.330;-1.180;2023-03-05T05:23:24;11.57;;;8.13;;
14326;SDS011;7247;53.330;-1.180;2023-03-05T05:25:54;11.63;;;8.27;;
14326;SDS011;7247;53.330;-1.180;2023-03-05T05:28:21;10.07;;;7.93;;
14326;SDS011;7247;53.330;-1.180;2023-03-05T05:30:48;12.03;;;7.93;;
14326;SDS011;7247;53.330;-1.180;2023-03-05T05:33:15;9.80;;;6.53;;
14326;SDS011;7247;53.330;-1.180;2023-03-05T05:35:41;10.77;;;6.63;;
14326;SDS011;7247;53.330;-1.180;2023-03-05T05:38:08;8.00;;;6.63;;
14326;SDS011;7247;53.330;-1.180;2023-03-05T05:40:34;10.13;;;6.37;;
14326;SDS011;7247;53.330;-1.180;2023-03-05T05:43:01;7.80;;;6.20;;
14326;SDS011;7247;53.330;-1.180;2023-03-05T05:45:27;10.50;;;6.47;;
14326;SDS011;7247;53.330;-1.180;2023-03-05T05:47:55;9.50;;;6.63;;
14326;SDS011;7247;53.330;-1.180;2023-03-05T05:50:21;9.40;;;7.20;;
14326;SDS011;7247;53.330;-1.180;2023-03-05T05:52:49;11.10;;;6.70;;
14326;SDS011;7247;53.330;-1.180;2023-03-05T05:55:16;12.50;;;6.70;;
14326;SDS011;7247;53.330;-1.180;2023-03-05T05:57:42;8.27;;;6.17;;
14326;SDS011;7247;53.330;-1.180;2023-03-05T06:00:10;8.47;;;6.40;;
14326;SDS011;7247;53.330;-1.180;2023-03-05T06:02:37;8.40;;;6.43;;
14326;SDS011;7247;53.330;-1.180;2023-03-05T06:05:05;7.90;;;5.70;;
14326;SDS011;7247;53.330;-1.180;2023-03-05T06:07:32;13.83;;;6.30;;
14326;SDS011;7247;53.330;-1.180;2023-03-05T06:09:59;10.23;;;6.20;;
14326;SDS011;7247;53.330;-1.180;2023-03-05T06:12:25;11.13;;;6.30;;
14326;SDS011;7247;53.330;-1.180;2023-03-05T06:14:52;10.27;;;6.33;;
14326;SDS011;7247;53.330;-1.180;2023-03-05T06:17:18;7.10;;;5.87;;
14326;SDS011;7247;53.330;-1.180;2023-03-05T06:19:45;9.30;;;6.53;;
14326;SDS011;7247;53.330;-1.180;2023-03-05T06:22:12;12.27;;;5.80;;
14326;SDS011;7247;53.330;-1.180;2023-03-05T06:24:39;9.37;;;6.00;;
14326;SDS011;7247;53.330;-1.180;2023-03-05T06:27:05;7.97;;;6.10;;
14326;SDS011;7247;53.330;-1.180;2023-03-05T06:29:32;10.33;;;6.23;;
14326;SDS011;7247;53.330;-1.180;2023-03-05T06:31:58;8.47;;;6.27;;
14326;SDS011;7247;53.330;-1.180;2023-03-05T06:34:24;10.33;;;6.30;;
14326;SDS011;7247;53.330;-1.180;2023-03-05T06:36:51;8.37;;;5.77;;
14326;SDS011;7247;53.330;-1.180;2023-03-05T06:39:19;8.33;;;5.63;;
14326;SDS011;7247;53.330;-1.180;2023-03-05T06:41:45;7.90;;;5.73;;
14326;SDS011;7247;53.330;-1.180;2023-03-05T06:44:11;9.03;;;5.90;;
14326;SDS011;7247;53.330;-1.180;2023-03-05T06:46:38;6.97;;;5.77;;
14326;SDS011;7247;53.330;-1.180;2023-03-05T06:49:04;8.10;;;5.63;;
14326;SDS011;7247;53.330;-1.180;2023-03-05T06:51:31;7.93;;;5.87;;
14326;SDS011;7247;53.330;-1.180;2023-03-05T06:53:58;8.87;;;6.00;;
14326;SDS011;7247;53.330;-1.180;2023-03-05T06:56:26;11.67;;;6.27;;
14326;SDS011;7247;53.330;-1.180;2023-03-05T06:58:53;9.97;;;5.70;;
14326;SDS011;7247;53.330;-1.180;2023-03-05T07:01:20;8.63;;;5.53;;
14326;SDS011;7247;53.330;-1.180;2023-03-05T07:03:48;9.73;;;5.20;;
14326;SDS011;7247;53.330;-1.180;2023-03-05T07:06:14;8.07;;;5.50;;
14326;SDS011;7247;53.330;-1.180;2023-03-05T07:08:41;9.50;;;5.53;;
14326;SDS011;7247;53.330;-1.180;2023-03-05T07:11:09;6.53;;;5.10;;
14326;SDS011;7247;53.330;-1.180;2023-03-05T07:13:37;7.33;;;5.10;;
14326;SDS011;7247;53.330;-1.180;2023-03-05T07:16:04;7.20;;;5.13;;
14326;SDS011;7247;53.330;-1.180;2023-03-05T07:18:30;8.47;;;5.10;;
14326;SDS011;7247;53.330;-1.180;2023-03-05T07:21:00;6.17;;;4.77;;
14326;SDS011;7247;53.330;-1.180;2023-03-05T07:23:26;8.80;;;5.23;;
14326;SDS011;7247;53.330;-1.180;2023-03-05T07:25:53;5.90;;;4.90;;
14326;SDS011;7247;53.330;-1.180;2023-03-05T07:28:19;6.80;;;5.27;;
14326;SDS011;7247;53.330;-1.180;2023-03-05T07:30:54;7.53;;;5.00;;
14326;SDS011;7247;53.330;-1.180;2023-03-05T07:33:20;9.27;;;5.53;;
14326;SDS011;7247;53.330;-1.180;2023-03-05T07:35:47;7.90;;;5.20;;
14326;SDS011;7247;53.330;-1.180;2023-03-05T07:38:13;9.97;;;5.30;;
14326;SDS011;7247;53.330;-1.180;2023-03-05T07:40:39;7.07;;;5.20;;
14326;SDS011;7247;53.330;-1.180;2023-03-05T07:43:06;9.00;;;5.90;;
14326;SDS011;7247;53.330;-1.180;2023-03-05T07:45:32;8.87;;;6.07;;
14326;SDS011;7247;53.330;-1.180;2023-03-05T07:48:00;9.93;;;5.70;;
14326;SDS011;7247;53.330;-1.180;2023-03-05T07:50:27;7.20;;;5.13;;
14326;SDS011;7247;53.330;-1.180;2023-03-05T07:52:53;9.00;;;5.70;;
14326;SDS011;7247;53.330;-1.180;2023-03-05T07:55:20;7.60;;;5.17;;
14326;SDS011;7247;53.330;-1.180;2023-03-05T07:57:46;8.03;;;5.40;;
14326;SDS011;7247;53.330;-1.180;2023-03-05T08:00:13;8.80;;;5.80;;
14326;SDS011;7247;53.330;-1.180;2023-03-05T08:02:39;8.27;;;5.77;;
14326;SDS011;7247;53.330;-1.180;2023-03-05T08:05:08;8.60;;;5.80;;
14326;SDS011;7247;53.330;-1.180;2023-03-05T08:07:34;6.60;;;5.57;;
14326;SDS011;7247;53.330;-1.180;2023-03-05T08:10:00;6.83;;;5.10;;
14326;SDS011;7247;53.330;-1.180;2023-03-05T08:12:27;7.17;;;5.43;;
14326;SDS011;7247;53.330;-1.180;2023-03-05T08:14:54;7.60;;;5.20;;
14326;SDS011;7247;53.330;-1.180;2023-03-05T08:17:20;8.03;;;5.13;;
14326;SDS011;7247;53.330;-1.180;2023-03-05T08:19:47;6.80;;;4.97;;
14326;SDS011;7247;53.330;-1.180;2023-03-05T08:22:15;6.77;;;5.10;;
14326;SDS011;7247;53.330;-1.180;2023-03-05T08:24:44;7.60;;;4.83;;
14326;SDS011;7247;53.330;-1.180;2023-03-05T08:27:10;9.90;;;5.43;;
14326;SDS011;7247;53.330;-1.180;2023-03-05T08:29:37;8.17;;;5.37;;
14326;SDS011;7247;53.330;-1.180;2023-03-05T08:32:04;8.60;;;5.43;;
14326;SDS011;7247;53.330;-1.180;2023-03-05T08:34:30;6.80;;;5.03;;
14326;SDS011;7247;53.330;-1.180;2023-03-05T08:36:56;7.73;;;4.67;;
14326;SDS011;7247;53.330;-1.180;2023-03-05T08:39:24;7.57;;;5.63;;
14326;SDS011;7247;53.330;-1.180;2023-03-05T08:41:51;8.07;;;5.77;;
14326;SDS011;7247;53.330;-1.180;2023-03-05T08:44:17;8.73;;;5.30;;
14326;SDS011;7247;53.330;-1.180;2023-03-05T08:46:43;7.20;;;5.07;;
14326;SDS011;7247;53.330;-1.180;2023-03-05T08:49:10;7.47;;;5.27;;
14326;SDS011;7247;53.330;-1.180;2023-03-05T08:51:36;6.83;;;5.10;;
14326;SDS011;7247;53.330;-1.180;2023-03-05T08:54:03;6.00;;;4.80;;
14326;SDS011;7247;53.330;-1.180;2023-03-05T08:56:33;7.37;;;4.97;;
14326;SDS011;7247;53.330;-1.180;2023-03-05T08:58:59;6.03;;;4.90;;
14326;SDS011;7247;53.330;-1.180;2023-03-05T09:01:26;5.80;;;4.90;;
14326;SDS011;7247;53.330;-1.180;2023-03-05T09:03:52;5.53;;;4.60;;
14326;SDS011;7247;53.330;-1.180;2023-03-05T09:06:18;7.80;;;4.40;;
14326;SDS011;7247;53.330;-1.180;2023-03-05T09:08:45;6.20;;;4.53;;
14326;SDS011;7247;53.330;-1.180;2023-03-05T09:11:11;5.33;;;4.70;;
14326;SDS011;7247;53.330;-1.180;2023-03-05T09:13:39;8.03;;;4.87;;
14326;SDS011;7247;53.330;-1.180;2023-03-05T09:16:06;7.43;;;4.60;;
14326;SDS011;7247;53.330;-1.180;2023-03-05T09:18:33;6.73;;;4.90;;
14326;SDS011;7247;53.330;-1.180;2023-03-05T09:21:02;6.63;;;4.77;;
14326;SDS011;7247;53.330;-1.180;2023-03-05T09:23:29;6.23;;;4.90;;
14326;SDS011;7247;53.330;-1.180;2023-03-05T09:25:55;4.63;;;4.13;;
14326;SDS011;7247;53.330;-1.180;2023-03-05T09:28:22;4.80;;;4.30;;
14326;SDS011;7247;53.330;-1.180;2023-03-05T09:30:49;3.77;;;3.37;;
14326;SDS011;7247;53.330;-1.180;2023-03-05T09:33:16;5.03;;;3.43;;
14326;SDS011;7247;53.330;-1.180;2023-03-05T09:35:42;3.90;;;3.23;;
14326;SDS011;7247;53.330;-1.180;2023-03-05T09:38:09;3.40;;;3.10;;
14326;SDS011;7247;53.330;-1.180;2023-03-05T09:40:37;2.90;;;2.60;;
14326;SDS011;7247;53.330;-1.180;2023-03-05T09:43:09;4.13;;;3.10;;
14326;SDS011;7247;53.330;-1.180;2023-03-05T09:45:43;4.10;;;3.07;;
14326;SDS011;7247;53.330;-1.180;2023-03-05T09:48:16;3.30;;;3.00;;
14326;SDS011;7247;53.330;-1.180;2023-03-05T09:50:46;4.27;;;3.17;;
14326;SDS011;7247;53.330;-1.180;2023-03-05T09:53:16;3.10;;;2.80;;
14326;SDS011;7247;53.330;-1.180;2023-03-05T09:55:46;4.73;;;3.17;;
14326;SDS011;7247;53.330;-1.180;2023-03-05T09:58:13;2.77;;;2.40;;
14326;SDS011;7247;53.330;-1.180;2023-03-05T10:00:42;2.87;;;2.57;;
14326;SDS011;7247;53.330;-1.180;2023-03-05T10:03:12;4.73;;;2.77;;
14326;SDS011;7247;53.330;-1.180;2023-03-05T10:05:46;2.73;;;2.50;;
14326;SDS011;7247;53.330;-1.180;2023-03-05T10:08:15;2.50;;;2.30;;
14326;SDS011;7247;53.330;-1.180;2023-03-05T10:10:43;4.10;;;2.83;;
14326;SDS011;7247;53.330;-1.180;2023-03-05T10:13:15;3.50;;;2.93;;
14326;SDS011;7247;53.330;-1.180;2023-03-05T10:15:47;3.97;;;2.80;;
14326;SDS011;7247;53.330;-1.180;2023-03-05T10:18:18;5.33;;;3.13;;
14326;SDS011;7247;53.330;-1.180;2023-03-05T10:20:54;3.93;;;3.00;;
14326;SDS011;7247;53.330;-1.180;2023-03-05T10:26:09;3.83;;;3.37;;
14326;SDS011;7247;53.330;-1.180;2023-03-05T10:28:41;4.53;;;3.40;;
14326;SDS011;7247;53.330;-1.180;2023-03-05T10:31:12;6.27;;;3.63;;
14326;SDS011;7247;53.330;-1.180;2023-03-05T10:33:45;4.87;;;2.87;;
14326;SDS011;7247;53.330;-1.180;2023-03-05T10:36:18;5.10;;;3.60;;
14326;SDS011;7247;53.330;-1.180;2023-03-05T10:41:31;4.27;;;3.20;;
14326;SDS011;7247;53.330;-1.180;2023-03-05T10:43:59;6.07;;;3.27;;
14326;SDS011;7247;53.330;-1.180;2023-03-05T10:46:29;5.10;;;3.73;;
14326;SDS011;7247;53.330;-1.180;2023-03-05T10:48:56;4.83;;;3.73;;
14326;SDS011;7247;53.330;-1.180;2023-03-05T10:51:27;3.80;;;3.17;;
14326;SDS011;7247;53.330;-1.180;2023-03-05T10:53:57;3.83;;;2.90;;
14326;SDS011;7247;53.330;-1.180;2023-03-05T10:56:24;4.07;;;2.93;;
14326;SDS011;7247;53.330;-1.180;2023-03-05T10:58:51;3.90;;;3.50;;
14326;SDS011;7247;53.330;-1.180;2023-03-05T11:01:19;4.97;;;3.60;;
14326;SDS011;7247;53.330;-1.180;2023-03-05T11:03:48;5.40;;;3.60;;
14326;SDS011;7247;53.330;-1.180;2023-03-05T11:06:14;6.07;;;3.90;;
14326;SDS011;7247;53.330;-1.180;2023-03-05T11:08:49;5.73;;;4.20;;
14326;SDS011;7247;53.330;-1.180;2023-03-05T11:11:16;6.43;;;5.00;;
14326;SDS011;7247;53.330;-1.180;2023-03-05T11:13:54;7.63;;;5.50;;
14326;SDS011;7247;53.330;-1.180;2023-03-05T11:16:21;5.40;;;4.63;;
14326;SDS011;7247;53.330;-1.180;2023-03-05T11:18:48;5.90;;;4.13;;
14326;SDS011;7247;53.330;-1.180;2023-03-05T11:21:18;9.70;;;4.93;;
14326;SDS011;7247;53.330;-1.180;2023-03-05T11:23:54;6.90;;;5.00;;
14326;SDS011;7247;53.330;-1.180;2023-03-05T11:26:28;7.93;;;5.10;;
14326;SDS011;7247;53.330;-1.180;2023-03-05T11:28:55;6.90;;;5.37;;
14326;SDS011;7247;53.330;-1.180;2023-03-05T11:31:23;6.40;;;4.77;;
14326;SDS011;7247;53.330;-1.180;2023-03-05T11:33:53;5.17;;;4.60;;
14326;SDS011;7247;53.330;-1.180;2023-03-05T11:36:22;9.77;;;5.93;;
14326;SDS011;7247;53.330;-1.180;2023-03-05T11:38:54;5.40;;;4.63;;
14326;SDS011;7247;53.330;-1.180;2023-03-05T11:41:23;8.00;;;5.20;;
14326;SDS011;7247;53.330;-1.180;2023-03-05T11:43:51;6.90;;;5.17;;
14326;SDS011;7247;53.330;-1.180;2023-03-05T11:46:18;6.40;;;5.40;;
14326;SDS011;7247;53.330;-1.180;2023-03-05T11:48:45;7.20;;;5.80;;
14326;SDS011;7247;53.330;-1.180;2023-03-05T11:51:14;8.93;;;6.63;;
14326;SDS011;7247;53.330;-1.180;2023-03-05T11:53:41;8.43;;;6.53;;
14326;SDS011;7247;53.330;-1.180;2023-03-05T11:56:13;9.53;;;7.23;;
14326;SDS011;7247;53.330;-1.180;2023-03-05T11:58:42;9.13;;;7.17;;
14326;SDS011;7247;53.330;-1.180;2023-03-05T12:01:12;7.93;;;7.13;;
14326;SDS011;7247;53.330;-1.180;2023-03-05T12:03:40;9.83;;;7.63;;
14326;SDS011;7247;53.330;-1.180;2023-03-05T12:06:09;9.80;;;7.60;;
14326;SDS011;7247;53.330;-1.180;2023-03-05T12:08:40;10.27;;;8.67;;
14326;SDS011;7247;53.330;-1.180;2023-03-05T12:11:10;12.97;;;7.90;;
14326;SDS011;7247;53.330;-1.180;2023-03-05T12:13:41;11.37;;;8.00;;
14326;SDS011;7247;53.330;-1.180;2023-03-05T12:16:11;9.13;;;7.47;;
14326;SDS011;7247;53.330;-1.180;2023-03-05T12:18:42;9.40;;;7.63;;
14326;SDS011;7247;53.330;-1.180;2023-03-05T12:21:13;11.00;;;7.63;;
14326;SDS011;7247;53.330;-1.180;2023-03-05T12:23:44;8.47;;;7.53;;
14326;SDS011;7247;53.330;-1.180;2023-03-05T12:26:11;10.33;;;8.00;;
14326;SDS011;7247;53.330;-1.180;2023-03-05T12:31:34;9.53;;;7.37;;
14326;SDS011;7247;53.330;-1.180;2023-03-05T12:36:47;9.27;;;7.83;;
14326;SDS011;7247;53.330;-1.180;2023-03-05T12:41:59;9.83;;;7.90;;
14326;SDS011;7247;53.330;-1.180;2023-03-05T12:44:25;8.83;;;7.23;;
14326;SDS011;7247;53.330;-1.180;2023-03-05T12:49:38;9.63;;;7.40;;
14326;SDS011;7247;53.330;-1.180;2023-03-05T12:52:06;10.60;;;7.57;;
14326;SDS011;7247;53.330;-1.180;2023-03-05T12:54:38;8.73;;;6.77;;
14326;SDS011;7247;53.330;-1.180;2023-03-05T12:57:05;8.13;;;7.07;;
14326;SDS011;7247;53.330;-1.180;2023-03-05T12:59:36;12.07;;;7.57;;
14326;SDS011;7247;53.330;-1.180;2023-03-05T13:02:08;9.83;;;7.37;;
14326;SDS011;7247;53.330;-1.180;2023-03-05T13:04:42;9.60;;;7.67;;
14326;SDS011;7247;53.330;-1.180;2023-03-05T13:07:12;8.97;;;7.30;;
14326;SDS011;7247;53.330;-1.180;2023-03-05T13:09:39;8.83;;;7.33;;
14326;SDS011;7247;53.330;-1.180;2023-03-05T13:12:09;8.43;;;7.03;;
14326;SDS011;7247;53.330;-1.180;2023-03-05T13:14:38;10.37;;;7.23;;
14326;SDS011;7247;53.330;-1.180;2023-03-05T13:19:51;8.07;;;7.23;;
14326;SDS011;7247;53.330;-1.180;2023-03-05T13:22:17;8.67;;;7.30;;
14326;SDS011;7247;53.330;-1.180;2023-03-05T13:24:44;9.17;;;6.93;;
14326;SDS011;7247;53.330;-1.180;2023-03-05T13:27:23;7.90;;;6.60;;
14326;SDS011;7247;53.330;-1.180;2023-03-05T13:29:50;7.53;;;6.30;;
14326;SDS011;7247;53.330;-1.180;2023-03-05T13:32:19;9.37;;;6.57;;
14326;SDS011;7247;53.330;-1.180;2023-03-05T13:34:48;9.93;;;7.40;;
14326;SDS011;7247;53.330;-1.180;2023-03-05T13:37:17;8.27;;;6.87;;
14326;SDS011;7247;53.330;-1.180;2023-03-05T13:39:46;9.87;;;6.83;;
14326;SDS011;7247;53.330;-1.180;2023-03-05T13:42:14;10.50;;;7.03;;
14326;SDS011;7247;53.330;-1.180;2023-03-05T13:44:41;7.80;;;6.90;;
14326;SDS011;7247;53.330;-1.180;2023-03-05T13:47:09;11.17;;;7.70;;
14326;SDS011;7247;53.330;-1.180;2023-03-05T13:49:37;8.80;;;7.10;;
14326;SDS011;7247;53.330;-1.180;2023-03-05T13:52:04;10.83;;;7.67;;
14326;SDS011;7247;53.330;-1.180;2023-03-05T13:54:32;7.50;;;6.77;;
14326;SDS011;7247;53.330;-1.180;2023-03-05T13:56:59;9.57;;;6.93;;
14326;SDS011;7247;53.330;-1.180;2023-03-05T13:59:27;11.23;;;6.77;;
14326;SDS011;7247;53.330;-1.180;2023-03-05T14:01:55;9.57;;;7.10;;
14326;SDS011;7247;53.330;-1.180;2023-03-05T14:04:22;8.50;;;6.70;;
14326;SDS011;7247;53.330;-1.180;2023-03-05T14:06:51;8.87;;;7.90;;
14326;SDS011;7247;53.330;-1.180;2023-03-05T14:09:19;6.80;;;5.53;;
14326;SDS011;7247;53.330;-1.180;2023-03-05T14:11:57;8.47;;;7.53;;
14326;SDS011;7247;53.330;-1.180;2023-03-05T14:14:24;7.93;;;6.00;;
14326;SDS011;7247;53.330;-1.180;2023-03-05T14:16:51;7.00;;;5.50;;
14326;SDS011;7247;53.330;-1.180;2023-03-05T14:19:28;6.70;;;5.80;;
14326;SDS011;7247;53.330;-1.180;2023-03-05T14:21:56;9.23;;;5.80;;
14326;SDS011;7247;53.330;-1.180;2023-03-05T14:24:23;6.10;;;5.47;;
14326;SDS011;7247;53.330;-1.180;2023-03-05T14:26:52;8.57;;;6.23;;
14326;SDS011;7247;53.330;-1.180;2023-03-05T14:29:22;7.77;;;5.73;;
14326;SDS011;7247;53.330;-1.180;2023-03-05T14:31:49;7.00;;;5.87;;
14326;SDS011;7247;53.330;-1.180;2023-03-05T14:34:20;8.93;;;6.07;;
14326;SDS011;7247;53.330;-1.180;2023-03-05T14:36:48;9.23;;;5.90;;
14326;SDS011;7247;53.330;-1.180;2023-03-05T14:39:28;7.13;;;5.40;;
14326;SDS011;7247;53.330;-1.180;2023-03-05T14:41:55;6.77;;;5.30;;
14326;SDS011;7247;53.330;-1.180;2023-03-05T14:44:23;7.50;;;5.50;;
14326;SDS011;7247;53.330;-1.180;2023-03-05T14:46:50;6.63;;;5.70;;
14326;SDS011;7247;53.330;-1.180;2023-03-05T14:49:17;7.20;;;5.77;;
14326;SDS011;7247;53.330;-1.180;2023-03-05T14:51:43;7.93;;;5.40;;
14326;SDS011;7247;53.330;-1.180;2023-03-05T14:54:17;7.03;;;5.37;;
14326;SDS011;7247;53.330;-1.180;2023-03-05T14:56:44;6.27;;;5.30;;
14326;SDS011;7247;53.330;-1.180;2023-03-05T14:59:10;5.90;;;5.27;;
14326;SDS011;7247;53.330;-1.180;2023-03-05T15:01:38;7.77;;;6.87;;
14326;SDS011;7247;53.330;-1.180;2023-03-05T15:04:05;6.00;;;5.40;;
14326;SDS011;7247;53.330;-1.180;2023-03-05T15:06:32;6.23;;;5.63;;